createdAt,value
2018-01-13T00:00:21.261Z,25.45
2018-01-13T00:02:48.175Z,24.05
2018-01-13T00:05:15.131Z,27.00
2018-01-13T00:07:42.829Z,25.17
2018-01-13T00:10:09.764Z,27.30
2018-01-13T00:12:36.672Z,26.55
2018-01-13T00:15:03.610Z,25.98
2018-01-13T00:17:30.527Z,25.02
2018-01-13T00:19:57.448Z,30.05
2018-01-13T00:22:24.368Z,29.15
2018-01-13T00:24:52.089Z,27.92
2018-01-13T00:27:19.025Z,26.10
2018-01-13T00:29:45.947Z,31.33
2018-01-13T00:32:13.016Z,31.00
2018-01-13T00:34:39.948Z,29.37
2018-01-13T00:37:06.852Z,28.20
2018-01-13T00:39:33.824Z,27.85
2018-01-13T00:42:01.497Z,28.30
2018-01-13T00:44:28.433Z,29.37
2018-01-13T00:46:55.357Z,27.48
2018-01-13T00:49:22.294Z,29.25
2018-01-13T00:51:49.235Z,28.73
2018-01-13T00:54:16.163Z,28.65
2018-01-13T00:56:43.152Z,27.42
2018-01-13T00:59:10.061Z,29.35
2018-01-13T01:01:36.990Z,28.12
2018-01-13T01:04:03.909Z,27.87
2018-01-13T01:06:30.815Z,30.35
2018-01-13T01:08:57.724Z,30.98
2018-01-13T01:11:24.652Z,29.45
2018-01-13T01:13:51.574Z,26.92
2018-01-13T01:16:18.476Z,28.40
2018-01-13T01:18:45.438Z,29.45
2018-01-13T01:21:12.337Z,29.17
2018-01-13T01:23:40.022Z,28.65
2018-01-13T01:26:06.950Z,27.60
2018-01-13T01:28:33.868Z,30.62
2018-01-13T01:31:01.582Z,29.75
2018-01-13T01:33:28.506Z,28.33
2018-01-13T01:35:55.438Z,29.17
2018-01-13T01:38:22.360Z,29.55
2018-01-13T01:40:49.286Z,29.55
2018-01-13T01:43:16.197Z,27.05
2018-01-13T01:45:43.122Z,30.48
2018-01-13T01:48:21.915Z,30.65
2018-01-13T01:50:48.835Z,26.45
2018-01-13T01:53:15.746Z,28.27
2018-01-13T01:55:42.668Z,26.55
2018-01-13T01:58:10.331Z,28.00
2018-01-13T02:00:38.015Z,30.12
2018-01-13T02:03:04.915Z,25.70
2018-01-13T02:05:31.836Z,27.15
2018-01-13T02:07:58.736Z,26.20
2018-01-13T02:10:25.651Z,25.73
2018-01-13T02:12:52.556Z,27.52
2018-01-13T02:15:19.508Z,28.08
2018-01-13T02:17:46.439Z,28.10
2018-01-13T02:20:13.369Z,29.08
2018-01-13T02:22:40.283Z,27.75
2018-01-13T02:25:07.972Z,26.48
2018-01-13T02:27:34.888Z,26.45
2018-01-13T02:30:02.596Z,27.65
2018-01-13T02:32:30.518Z,26.40
2018-01-13T02:34:58.214Z,25.65
2018-01-13T02:37:25.111Z,27.90
2018-01-13T02:39:52.037Z,27.80
2018-01-13T02:42:18.948Z,28.70
2018-01-13T02:44:45.866Z,29.45
2018-01-13T02:47:12.771Z,26.62
2018-01-13T02:49:39.705Z,26.75
2018-01-13T02:52:06.620Z,26.90
2018-01-13T02:54:33.540Z,24.90
2018-01-13T02:57:01.215Z,26.25
2018-01-13T02:59:28.151Z,28.25
2018-01-13T03:01:55.059Z,26.85
2018-01-13T03:04:21.989Z,28.75
2018-01-13T03:06:48.929Z,27.25
2018-01-13T03:09:15.857Z,26.00
2018-01-13T03:11:42.771Z,29.15
2018-01-13T03:14:09.687Z,28.45
2018-01-13T03:16:37.370Z,27.95
2018-01-13T03:19:05.058Z,26.62
2018-01-13T03:21:31.965Z,27.58
2018-01-13T03:23:58.884Z,28.00
2018-01-13T03:26:25.791Z,30.23
2018-01-13T03:28:52.715Z,26.77
2018-01-13T03:31:19.624Z,30.90
2018-01-13T03:33:47.319Z,28.08
2018-01-13T03:36:14.987Z,29.08
2018-01-13T03:38:41.916Z,27.77
2018-01-13T03:41:09.587Z,30.23
2018-01-13T03:43:37.268Z,27.20
2018-01-13T03:46:04.171Z,29.67
2018-01-13T03:48:31.091Z,27.90
2018-01-13T03:50:58.003Z,27.37
2018-01-13T03:53:24.944Z,29.33
2018-01-13T03:55:51.852Z,27.65
2018-01-13T03:58:18.755Z,26.40
2018-01-13T04:00:45.685Z,27.10
2018-01-13T04:03:12.608Z,28.83
2018-01-13T04:05:39.516Z,24.52
2018-01-13T04:08:06.435Z,30.12
2018-01-13T04:10:33.341Z,27.95
2018-01-13T04:13:00.276Z,27.02
2018-01-13T04:15:27.945Z,26.65
2018-01-13T04:17:54.872Z,27.85
2018-01-13T04:20:22.545Z,26.05
2018-01-13T04:22:50.251Z,26.70
2018-01-13T04:25:17.151Z,26.37
2018-01-13T04:27:44.856Z,29.73
2018-01-13T04:30:11.772Z,26.45
2018-01-13T04:32:38.687Z,26.98
2018-01-13T04:35:06.359Z,27.98
2018-01-13T04:37:33.288Z,27.98
2018-01-13T04:40:00.961Z,27.75
2018-01-13T04:42:28.652Z,26.92
2018-01-13T04:44:55.574Z,27.27
2018-01-13T04:47:23.268Z,25.23
2018-01-13T04:49:50.180Z,26.08
2018-01-13T04:52:17.867Z,26.70
2018-01-13T04:54:44.780Z,28.12
2018-01-13T04:57:12.470Z,29.58
2018-01-13T04:59:39.377Z,27.17
2018-01-13T05:02:07.060Z,29.35
2018-01-13T05:04:33.968Z,28.95
2018-01-13T05:07:00.900Z,28.80
2018-01-13T05:09:27.820Z,26.75
2018-01-13T05:11:54.760Z,28.60
2018-01-13T05:14:21.670Z,30.33
2018-01-13T05:16:49.351Z,27.95
2018-01-13T05:19:16.251Z,29.58
2018-01-13T05:21:43.176Z,31.75
2018-01-13T05:24:10.088Z,32.80
2018-01-13T05:26:37.946Z,34.33
2018-01-13T05:29:04.852Z,32.20
2018-01-13T05:31:31.775Z,32.53
2018-01-13T05:33:58.692Z,32.92
2018-01-13T05:36:25.620Z,35.25
2018-01-13T05:38:52.550Z,33.55
2018-01-13T05:41:20.232Z,34.70
2018-01-13T05:43:47.144Z,37.00
2018-01-13T05:46:14.068Z,38.33
2018-01-13T05:48:40.978Z,35.38
2018-01-13T05:51:07.888Z,34.55
2018-01-13T05:53:35.583Z,34.40
2018-01-13T05:56:02.494Z,34.58
2018-01-13T05:58:30.184Z,38.42
2018-01-13T06:00:57.094Z,35.67
2018-01-13T06:03:24.780Z,35.53
2018-01-13T06:05:51.685Z,36.97
2018-01-13T06:08:18.616Z,34.83
2018-01-13T06:10:45.540Z,39.40
2018-01-13T06:13:12.468Z,35.53
2018-01-13T06:15:39.381Z,37.38
2018-01-13T06:18:07.072Z,38.85
2018-01-13T06:20:33.980Z,39.58
2018-01-13T06:23:01.668Z,38.75
2018-01-13T06:25:28.568Z,35.83
2018-01-13T06:27:55.494Z,39.45
2018-01-13T06:30:22.403Z,36.05
2018-01-13T06:32:49.332Z,37.00
2018-01-13T06:35:17.000Z,39.80
2018-01-13T06:37:44.688Z,38.00
2018-01-13T06:40:11.633Z,40.58
2018-01-13T06:42:38.592Z,35.83
2018-01-13T06:45:05.509Z,37.00
2018-01-13T06:47:32.428Z,35.42
2018-01-13T06:50:00.109Z,37.63
2018-01-13T06:52:27.020Z,44.70
2018-01-13T06:54:54.703Z,39.78
2018-01-13T06:57:22.384Z,36.13
2018-01-13T06:59:49.301Z,38.15
2018-01-13T07:02:16.993Z,39.22
2018-01-13T07:04:43.901Z,36.88
2018-01-13T07:07:11.587Z,35.90
2018-01-13T07:09:38.499Z,37.05
2018-01-13T07:12:05.451Z,37.53
2018-01-13T07:14:32.356Z,33.45
2018-01-13T07:16:59.327Z,36.10
2018-01-13T07:19:26.217Z,38.10
2018-01-13T07:21:53.165Z,37.30
2018-01-13T07:24:20.081Z,39.35
2018-01-13T07:26:47.768Z,35.95
2018-01-13T07:29:14.672Z,33.22
2018-01-13T07:31:42.555Z,38.80
2018-01-13T07:34:10.224Z,33.50
2018-01-13T07:36:37.908Z,34.20
2018-01-13T07:39:04.820Z,33.53
2018-01-13T07:41:32.509Z,33.35
2018-01-13T07:43:59.427Z,37.28
2018-01-13T07:46:27.117Z,35.28
2018-01-13T07:48:54.029Z,33.08
2018-01-13T07:51:21.716Z,35.50
2018-01-13T07:53:48.632Z,35.50
2018-01-13T07:56:16.331Z,36.17
2018-01-13T07:58:44.168Z,33.35
2018-01-13T08:01:11.884Z,32.53
2018-01-13T08:03:39.576Z,34.83
2018-01-13T08:06:06.496Z,36.40
2018-01-13T08:08:33.415Z,33.20
2018-01-13T08:11:00.329Z,36.47
2018-01-13T08:13:27.995Z,35.92
2018-01-13T08:15:54.911Z,37.38
2018-01-13T08:18:21.814Z,39.03
2018-01-13T08:20:48.748Z,33.03
2018-01-13T08:23:15.661Z,38.28
2018-01-13T08:25:43.360Z,36.05
2018-01-13T08:28:10.271Z,34.88
2018-01-13T08:30:37.956Z,33.60
2018-01-13T08:33:04.864Z,37.92
2018-01-13T08:35:31.795Z,36.25
2018-01-13T08:37:58.710Z,34.75
2018-01-13T08:40:25.655Z,33.63
2018-01-13T08:42:52.569Z,34.30
2018-01-13T08:45:19.508Z,32.10
2018-01-13T08:47:46.434Z,33.85
2018-01-13T08:50:14.132Z,35.58
2018-01-13T08:52:41.041Z,34.25
2018-01-13T08:55:08.737Z,33.22
2018-01-13T08:57:35.655Z,31.00
2018-01-13T09:00:02.597Z,35.40
2018-01-13T09:02:30.280Z,33.10
2018-01-13T09:04:57.212Z,34.47
2018-01-13T09:07:24.906Z,38.03
2018-01-13T09:09:51.841Z,40.95
2018-01-13T09:12:18.747Z,35.47
2018-01-13T09:14:45.668Z,34.20
2018-01-13T09:17:12.576Z,36.13
2018-01-13T09:19:39.515Z,37.63
2018-01-13T09:22:09.508Z,35.50
2018-01-13T09:24:37.199Z,33.53
2018-01-13T09:27:04.107Z,35.10
2018-01-13T09:29:31.799Z,37.17
2018-01-13T09:31:58.703Z,33.90
2018-01-13T09:34:25.621Z,37.28
2018-01-13T09:36:52.528Z,33.25
2018-01-13T09:39:19.447Z,34.40
2018-01-13T09:41:47.120Z,38.13
2018-01-13T09:44:14.252Z,36.53
2018-01-13T09:46:41.149Z,34.28
2018-01-13T09:49:08.083Z,36.63
2018-01-13T09:51:34.994Z,33.88
2018-01-13T09:54:01.900Z,36.28
2018-01-13T09:56:28.850Z,36.15
2018-01-13T09:58:55.760Z,34.90
2018-01-13T10:01:22.709Z,35.33
2018-01-13T10:03:50.389Z,36.22
2018-01-13T10:06:17.349Z,34.40
2018-01-13T10:08:44.260Z,35.42
2018-01-13T10:11:12.962Z,31.40
2018-01-13T10:13:39.874Z,34.83
2018-01-13T10:16:06.803Z,35.08
2018-01-13T10:18:33.711Z,35.83
2018-01-13T10:21:00.642Z,36.55
2018-01-13T10:23:27.543Z,34.88
2018-01-13T10:25:54.467Z,36.78
2018-01-13T10:28:21.374Z,37.03
2018-01-13T10:30:48.292Z,34.08
2018-01-13T10:33:15.971Z,37.05
2018-01-13T10:35:42.892Z,35.60
2018-01-13T10:38:10.563Z,37.85
2018-01-13T10:40:38.260Z,39.72
2018-01-13T10:43:05.168Z,39.22
2018-01-13T10:45:32.856Z,38.05
2018-01-13T10:47:59.801Z,38.17
2018-01-13T10:50:26.737Z,36.95
2018-01-13T10:52:53.636Z,37.05
2018-01-13T10:55:20.560Z,37.67
2018-01-13T10:57:50.104Z,37.72
2018-01-13T11:00:17.791Z,43.70
2018-01-13T11:02:44.696Z,40.22
2018-01-13T11:05:11.632Z,38.38
2018-01-13T11:07:38.532Z,37.92
2018-01-13T11:10:05.471Z,36.53
2018-01-13T11:12:32.384Z,36.33
2018-01-13T11:15:00.068Z,36.88
2018-01-13T11:17:26.982Z,37.40
2018-01-13T11:19:53.905Z,41.47
2018-01-13T11:22:20.821Z,39.83
2018-01-13T11:24:47.749Z,39.22
2018-01-13T11:27:14.662Z,39.25
2018-01-13T11:29:42.353Z,39.42
2018-01-13T11:32:09.260Z,37.55
2018-01-13T11:34:36.184Z,41.50
2018-01-13T11:37:03.100Z,39.38
2018-01-13T11:39:30.022Z,37.72
2018-01-13T11:41:56.936Z,47.03
2018-01-13T11:44:23.856Z,40.97
2018-01-13T11:46:50.764Z,39.42
2018-01-13T11:49:17.676Z,38.63
2018-01-13T11:51:44.600Z,36.85
2018-01-13T11:54:11.516Z,37.42
2018-01-13T11:56:38.429Z,31.12
2018-01-13T11:59:05.334Z,38.35
2018-01-13T12:01:32.256Z,36.70
2018-01-13T12:03:59.160Z,36.03
2018-01-13T12:06:26.088Z,40.67
2018-01-13T12:08:53.773Z,35.10
2018-01-13T12:11:20.725Z,39.50
2018-01-13T12:13:49.626Z,37.88
2018-01-13T12:16:16.531Z,35.75
2018-01-13T12:18:44.226Z,41.08
2018-01-13T12:21:11.152Z,33.67
2018-01-13T12:23:38.064Z,35.38
2018-01-13T12:26:04.990Z,37.58
2018-01-13T12:28:31.892Z,37.30
2018-01-13T12:30:58.816Z,39.90
2018-01-13T12:33:26.495Z,39.67
2018-01-13T12:35:53.440Z,38.15
2018-01-13T12:38:20.364Z,38.65
2018-01-13T12:40:48.084Z,38.22
2018-01-13T12:43:15.001Z,38.08
2018-01-13T12:45:41.966Z,38.15
2018-01-13T12:48:09.891Z,35.30
2018-01-13T12:50:37.596Z,37.90
2018-01-13T12:53:04.520Z,36.30
2018-01-13T12:55:31.448Z,39.75
2018-01-13T12:57:59.127Z,36.88
2018-01-13T13:00:27.020Z,38.90
2018-01-13T13:02:53.924Z,36.58
2018-01-13T13:05:20.860Z,38.13
2018-01-13T13:07:48.532Z,40.15
2018-01-13T13:10:15.489Z,37.05
2018-01-13T13:12:42.414Z,37.80
2018-01-13T13:15:09.338Z,38.08
2018-01-13T13:17:36.247Z,39.53
2018-01-13T13:20:03.170Z,37.50
2018-01-13T13:22:30.084Z,35.83
2018-01-13T13:24:57.830Z,36.95
2018-01-13T13:27:24.727Z,39.47
2018-01-13T13:29:51.666Z,36.22
2018-01-13T13:32:18.588Z,45.33
2018-01-13T13:34:46.454Z,38.42
2018-01-13T13:37:14.120Z,36.95
2018-01-13T13:39:41.040Z,36.50
2018-01-13T13:42:07.976Z,35.10
2018-01-13T13:44:34.908Z,35.30
2018-01-13T13:47:01.835Z,34.15
2018-01-13T13:49:28.823Z,32.45
2018-01-13T13:51:56.501Z,32.42
2018-01-13T13:54:24.200Z,33.05
2018-01-13T13:56:51.122Z,34.10
2018-01-13T13:59:18.047Z,33.42
2018-01-13T14:01:44.976Z,33.28
2018-01-13T14:04:12.653Z,30.02
2018-01-13T14:06:39.581Z,32.55
2018-01-13T14:09:07.255Z,31.40
2018-01-13T14:11:34.193Z,28.02
2018-01-13T14:14:01.890Z,29.05
2018-01-13T14:16:28.803Z,29.80
2018-01-13T14:18:56.485Z,28.45
2018-01-13T14:21:23.403Z,30.90
2018-01-13T14:23:51.073Z,27.15
2018-01-13T14:26:18.780Z,27.02
2018-01-13T14:28:45.698Z,32.20
2018-01-13T14:31:12.623Z,27.85
2018-01-13T14:33:40.295Z,28.77
2018-01-13T14:36:07.215Z,25.40
2018-01-13T14:38:34.136Z,25.48
2018-01-13T14:41:01.060Z,23.85
2018-01-13T14:43:28.743Z,22.35
2018-01-13T14:45:55.666Z,24.95
2018-01-13T14:48:22.576Z,25.80
2018-01-13T14:50:49.602Z,26.12
2018-01-13T14:53:17.275Z,29.63
2018-01-13T14:55:44.960Z,28.20
2018-01-13T14:58:11.876Z,24.45
2018-01-13T15:00:39.564Z,25.20
2018-01-13T15:03:06.485Z,24.58
2018-01-13T15:05:34.191Z,22.80
2018-01-13T15:08:01.092Z,23.40
2018-01-13T15:10:28.796Z,22.05
2018-01-13T15:12:55.715Z,24.50
2018-01-13T15:15:22.636Z,24.77
2018-01-13T15:17:50.312Z,23.35
2018-01-13T15:20:17.245Z,22.10
2018-01-13T15:22:44.919Z,21.00
2018-01-13T15:25:12.747Z,21.73
2018-01-13T15:27:39.655Z,20.02
2018-01-13T15:30:06.567Z,21.25
2018-01-13T15:32:33.480Z,20.65
2018-01-13T15:35:00.405Z,20.15
2018-01-13T15:37:27.322Z,20.08
2018-01-13T15:39:54.252Z,19.08
2018-01-13T15:42:21.158Z,19.30
2018-01-13T15:44:49.060Z,18.55
2018-01-13T15:47:15.981Z,18.40
2018-01-13T15:49:42.913Z,19.80
2018-01-13T15:52:09.840Z,19.37
2018-01-13T15:54:36.781Z,18.45
2018-01-13T15:57:04.637Z,18.77
2018-01-13T15:59:31.584Z,18.35
2018-01-13T16:01:58.507Z,19.05
2018-01-13T16:04:25.432Z,17.35
2018-01-13T16:06:52.365Z,15.65
2018-01-13T16:09:19.287Z,17.33
2018-01-13T16:11:46.204Z,21.95
2018-01-13T16:14:13.141Z,18.65
2018-01-13T16:16:40.814Z,20.05
2018-01-13T16:19:07.738Z,18.83
2018-01-13T16:21:35.428Z,15.80
2018-01-13T16:24:02.336Z,17.12
2018-01-13T16:26:29.286Z,15.88
2018-01-13T16:28:56.203Z,16.98
2018-01-13T16:31:23.945Z,17.45
2018-01-13T16:33:50.835Z,18.48
2018-01-13T16:36:17.760Z,17.00
2018-01-13T16:38:44.661Z,16.65
2018-01-13T16:41:11.597Z,17.58
2018-01-13T16:43:38.513Z,16.85
2018-01-13T16:46:05.440Z,17.35
2018-01-13T16:48:32.416Z,18.45
2018-01-13T16:50:59.311Z,16.50
2018-01-13T16:53:26.232Z,15.77
2018-01-13T16:55:53.154Z,16.33
2018-01-13T16:58:20.845Z,16.00
2018-01-13T17:00:47.768Z,16.00
2018-01-13T17:03:14.668Z,15.95
2018-01-13T17:05:41.622Z,14.40
2018-01-13T17:08:08.536Z,17.23
2018-01-13T17:10:36.224Z,15.55
2018-01-13T17:13:03.122Z,16.00
2018-01-13T17:15:30.059Z,15.02
2018-01-13T17:17:56.958Z,15.60
2018-01-13T17:20:24.868Z,14.95
2018-01-13T17:22:51.777Z,15.70
2018-01-13T17:25:19.685Z,14.60
2018-01-13T17:27:46.611Z,15.05
2018-01-13T17:30:14.320Z,15.10
2018-01-13T17:32:41.252Z,15.60
2018-01-13T17:35:08.193Z,15.02
2018-01-13T17:37:35.105Z,16.55
2018-01-13T17:40:02.798Z,16.27
2018-01-13T17:42:29.732Z,15.93
2018-01-13T17:44:56.665Z,15.50
2018-01-13T17:47:23.625Z,16.00
2018-01-13T17:49:50.566Z,14.43
2018-01-13T17:52:17.504Z,13.18
2018-01-13T17:54:44.443Z,13.85
2018-01-13T17:57:11.349Z,13.43
2018-01-13T17:59:38.276Z,14.55
2018-01-13T18:02:05.196Z,14.80
2018-01-13T18:04:34.037Z,13.30
2018-01-13T18:07:00.944Z,15.07
2018-01-13T18:09:28.653Z,14.07
2018-01-13T18:11:56.357Z,14.25
2018-01-13T18:14:23.308Z,14.57
2018-01-13T18:16:51.259Z,14.98
2018-01-13T18:19:18.190Z,14.07
2018-01-13T18:21:45.125Z,15.60
2018-01-13T18:24:12.832Z,15.27
2018-01-13T18:26:39.835Z,14.43
2018-01-13T18:29:07.540Z,18.00
2018-01-13T18:31:34.467Z,15.88
2018-01-13T18:34:01.413Z,12.45
2018-01-13T18:36:28.345Z,15.43
2018-01-13T18:38:55.297Z,15.60
2018-01-13T18:41:22.249Z,16.35
2018-01-13T18:43:50.097Z,24.58
2018-01-13T18:46:17.020Z,14.45
2018-01-13T18:48:44.756Z,15.13
2018-01-13T18:51:11.741Z,14.10
2018-01-13T18:53:39.503Z,15.70
2018-01-13T18:56:08.876Z,15.05
2018-01-13T18:58:39.550Z,14.27
2018-01-13T19:01:06.470Z,14.55
2018-01-13T19:03:34.151Z,14.98
2018-01-13T19:06:01.095Z,13.35
2018-01-13T19:08:28.160Z,15.48
2018-01-13T19:10:55.124Z,13.43
2018-01-13T19:13:22.100Z,12.80
2018-01-13T19:15:49.031Z,10.35
2018-01-13T19:18:16.035Z,12.68
2018-01-13T19:20:43.030Z,12.88
2018-01-13T19:23:09.940Z,12.37
2018-01-13T19:25:36.875Z,13.05
2018-01-13T19:28:04.696Z,12.40
2018-01-13T19:30:32.428Z,13.30
2018-01-13T19:32:59.343Z,13.35
2018-01-13T19:35:26.298Z,12.95
2018-01-13T19:37:53.236Z,14.45
2018-01-13T19:40:20.180Z,13.18
2018-01-13T19:42:48.204Z,14.43
2018-01-13T19:45:15.170Z,14.00
2018-01-13T19:47:42.376Z,14.13
2018-01-13T19:50:09.305Z,14.57
2018-01-13T19:52:37.221Z,16.08
2018-01-13T19:55:04.172Z,15.50
2018-01-13T19:57:31.099Z,15.00
2018-01-13T19:59:58.809Z,17.70
2018-01-13T20:02:25.727Z,16.30
2018-01-13T20:04:52.654Z,16.70
2018-01-13T20:07:19.564Z,16.23
2018-01-13T20:09:46.479Z,15.20
2018-01-13T20:12:13.386Z,14.10
2018-01-13T20:14:41.072Z,10.57
2018-01-13T20:17:07.972Z,10.65
2018-01-13T20:19:34.889Z,13.85
2018-01-13T20:22:01.795Z,13.57
2018-01-13T20:24:28.731Z,12.85
2018-01-13T20:26:57.420Z,12.98
2018-01-13T20:29:25.108Z,11.57
2018-01-13T20:31:52.020Z,13.02
2018-01-13T20:34:19.713Z,11.77
2018-01-13T20:36:48.598Z,13.52
2018-01-13T20:39:19.451Z,15.55
2018-01-13T20:41:46.356Z,15.15
2018-01-13T20:44:14.865Z,15.95
2018-01-13T20:46:41.776Z,14.45
2018-01-13T20:49:12.469Z,12.90
2018-01-13T20:51:42.939Z,11.70
2018-01-13T20:54:09.876Z,12.82
2018-01-13T20:56:36.793Z,12.93
2018-01-13T20:59:03.725Z,11.15
2018-01-13T21:01:30.732Z,12.10
2018-01-13T21:03:58.451Z,13.10
2018-01-13T21:06:25.412Z,13.45
2018-01-13T21:08:52.346Z,12.00
2018-01-13T21:11:20.181Z,14.23
2018-01-13T21:13:47.156Z,15.95
2018-01-13T21:16:14.099Z,14.90
2018-01-13T21:18:41.777Z,16.00
2018-01-13T21:21:08.700Z,15.48
2018-01-13T21:23:35.613Z,15.30
2018-01-13T21:26:02.541Z,17.15
2018-01-13T21:28:29.494Z,30.35
2018-01-13T21:30:56.425Z,15.40
2018-01-13T21:33:24.107Z,16.92
2018-01-13T21:35:51.036Z,11.07
2018-01-13T21:38:17.956Z,15.75
2018-01-13T21:40:44.878Z,14.55
2018-01-13T21:43:11.800Z,15.27
2018-01-13T21:45:38.752Z,14.93
2018-01-13T21:48:05.676Z,16.15
2018-01-13T21:50:32.607Z,14.85
2018-01-13T21:55:31.448Z,18.65
2018-01-13T21:57:58.411Z,22.42
2018-01-13T22:00:25.302Z,15.85
2018-01-13T22:02:52.228Z,17.08
2018-01-13T22:05:19.165Z,14.00
2018-01-13T22:07:46.856Z,13.98
2018-01-13T22:10:13.763Z,14.40
2018-01-13T22:12:40.694Z,14.43
2018-01-13T22:15:07.600Z,14.65
2018-01-13T22:17:34.516Z,15.27
2018-01-13T22:20:01.454Z,14.35
2018-01-13T22:22:28.408Z,13.55
2018-01-13T22:24:56.878Z,12.35
2018-01-13T22:27:23.805Z,14.18
2018-01-13T22:29:50.728Z,13.52
2018-01-13T22:32:17.667Z,13.00
2018-01-13T22:34:44.586Z,14.85
2018-01-13T22:37:12.304Z,13.60
2018-01-13T22:39:39.206Z,13.43
2018-01-13T22:42:06.129Z,12.00
2018-01-13T22:44:33.816Z,13.05
2018-01-13T22:47:00.740Z,14.63
2018-01-13T22:49:29.429Z,16.50
2018-01-13T22:51:57.152Z,15.23
2018-01-13T22:54:24.055Z,14.38
2018-01-13T22:56:51.015Z,12.95
2018-01-13T22:59:17.938Z,13.07
2018-01-13T23:01:45.636Z,13.70
2018-01-13T23:04:12.589Z,12.27
2018-01-13T23:06:39.496Z,13.18
2018-01-13T23:09:06.456Z,12.85
2018-01-13T23:11:33.376Z,12.63
2018-01-13T23:14:01.093Z,12.82
2018-01-13T23:16:28.002Z,14.25
2018-01-13T23:18:54.979Z,13.52
2018-01-13T23:21:21.922Z,14.50
2018-01-13T23:23:48.877Z,12.68
2018-01-13T23:26:15.795Z,13.85
2018-01-13T23:31:15.032Z,13.75
2018-01-13T23:33:41.941Z,13.52
2018-01-13T23:36:08.948Z,15.48
2018-01-13T23:38:35.932Z,14.95
2018-01-13T23:41:02.857Z,12.75
2018-01-13T23:43:30.548Z,14.15
2018-01-13T23:45:57.508Z,15.07
2018-01-13T23:48:25.623Z,13.15
2018-01-13T23:50:53.340Z,14.10
2018-01-13T23:53:20.260Z,15.25
2018-01-13T23:55:47.191Z,14.57
2018-01-13T23:58:14.101Z,14.23
